sensor_id;sensor_type;location;lat;lon;timestamp;pressure;altitude;pressure_sealevel;temperature;humidity
55289;BME280;41154;45.394;5.734;2024-03-29T02:30:13;95134.50;;;17.17;54.26
55289;BME280;41154;45.394;5.734;2024-03-29T02:32:40;95131.78;;;17.30;53.95
55289;BME280;41154;45.394;5.734;2024-03-29T02:35:06;95162.38;;;17.30;54.24
55289;BME280;41154;45.394;5.734;2024-03-29T02:37:32;95113.59;;;17.30;55.13
55289;BME280;41154;45.394;5.734;2024-03-29T02:39:57;95126.69;;;17.16;55.63
55289;BME280;41154;45.394;5.734;2024-03-29T02:42:23;95138.91;;;17.34;55.28
55289;BME280;41154;45.394;5.734;2024-03-29T02:44:49;95093.84;;;17.30;56.27
55289;BME280;41154;45.394;5.734;2024-03-29T02:47:14;95129.28;;;17.24;56.74
55289;BME280;41154;45.394;5.734;2024-03-29T02:49:40;95147.91;;;17.26;56.59
55289;BME280;41154;45.394;5.734;2024-03-29T02:52:07;95104.69;;;17.30;56.91
55289;BME280;41154;45.394;5.734;2024-03-29T02:54:33;95139.09;;;17.41;56.89
55289;BME280;41154;45.394;5.734;2024-03-29T02:56:58;95130.19;;;17.41;57.00
55289;BME280;41154;45.394;5.734;2024-03-29T02:59:24;95100.66;;;17.76;56.57
55289;BME280;41154;45.394;5.734;2024-03-29T03:02:18;95121.25;;;17.40;57.59
55289;BME280;41154;45.394;5.734;2024-03-29T03:04:44;95112.91;;;17.46;57.62
55289;BME280;41154;45.394;5.734;2024-03-29T03:07:10;95076.19;;;17.48;58.84
55289;BME280;41154;45.394;5.734;2024-03-29T03:09:54;95089.38;;;17.62;57.58
55289;BME280;41154;45.394;5.734;2024-03-29T03:12:38;95073.22;;;17.66;58.61
55289;BME280;41154;45.394;5.734;2024-03-29T03:15:05;95087.97;;;17.81;57.90
55289;BME280;41154;45.394;5.734;2024-03-29T03:24:02;95056.00;;;17.86;59.25
55289;BME280;41154;45.394;5.734;2024-03-29T03:26:57;95025.03;;;17.87;59.37
55289;BME280;41154;45.394;5.734;2024-03-29T03:29:23;95052.28;;;17.78;59.99
55289;BME280;41154;45.394;5.734;2024-03-29T03:31:49;95049.88;;;18.02;59.97
55289;BME280;41154;45.394;5.734;2024-03-29T03:34:14;95028.88;;;18.14;59.36
55289;BME280;41154;45.394;5.734;2024-03-29T03:36:40;95035.28;;;18.22;59.32
55289;BME280;41154;45.394;5.734;2024-03-29T03:39:06;95035.72;;;18.24;59.67
55289;BME280;41154;45.394;5.734;2024-03-29T03:41:32;95030.56;;;18.19;59.74
55289;BME280;41154;45.394;5.734;2024-03-29T03:43:57;95052.97;;;18.16;60.06
55289;BME280;41154;45.394;5.734;2024-03-29T03:46:23;95046.63;;;18.12;60.38
55289;BME280;41154;45.394;5.734;2024-03-29T03:48:49;95036.19;;;18.26;60.13
55289;BME280;41154;45.394;5.734;2024-03-29T03:51:14;95050.84;;;18.09;60.71
55289;BME280;41154;45.394;5.734;2024-03-29T03:53:40;95021.28;;;18.20;59.96
55289;BME280;41154;45.394;5.734;2024-03-29T03:56:28;95040.59;;;18.47;59.50
55289;BME280;41154;45.394;5.734;2024-03-29T03:58:58;94984.00;;;18.49;59.27
55289;BME280;41154;45.394;5.734;2024-03-29T04:01:24;95044.06;;;18.31;60.29
55289;BME280;41154;45.394;5.734;2024-03-29T04:03:50;95015.16;;;18.23;60.69
55289;BME280;41154;45.394;5.734;2024-03-29T04:06:16;95028.03;;;18.26;60.15
55289;BME280;41154;45.394;5.734;2024-03-29T04:08:44;95005.44;;;18.38;60.55
55289;BME280;41154;45.394;5.734;2024-03-29T04:11:10;95000.63;;;18.31;60.22
55289;BME280;41154;45.394;5.734;2024-03-29T04:13:36;95011.41;;;18.76;59.49
55289;BME280;41154;45.394;5.734;2024-03-29T04:16:07;95050.91;;;18.57;60.32
55289;BME280;41154;45.394;5.734;2024-03-29T04:18:33;94979.63;;;18.60;60.23
55289;BME280;41154;45.394;5.734;2024-03-29T04:21:00;94997.56;;;18.33;60.52
55289;BME280;41154;45.394;5.734;2024-03-29T04:23:42;95061.75;;;18.41;60.16
55289;BME280;41154;45.394;5.734;2024-03-29T04:26:08;95034.19;;;18.55;60.77
55289;BME280;41154;45.394;5.734;2024-03-29T04:28:34;95031.44;;;18.23;61.80
55289;BME280;41154;45.394;5.734;2024-03-29T04:31:00;94999.69;;;18.72;60.29
55289;BME280;41154;45.394;5.734;2024-03-29T04:33:26;95016.41;;;18.42;60.93
55289;BME280;41154;45.394;5.734;2024-03-29T04:36:00;95029.44;;;18.36;61.24
55289;BME280;41154;45.394;5.734;2024-03-29T04:41:34;95056.75;;;18.27;61.50
55289;BME280;41154;45.394;5.734;2024-03-29T04:44:01;95038.63;;;18.31;61.92
55289;BME280;41154;45.394;5.734;2024-03-29T04:46:30;95043.72;;;18.49;61.16
55289;BME280;41154;45.394;5.734;2024-03-29T04:48:57;95032.16;;;18.52;61.02
55289;BME280;41154;45.394;5.734;2024-03-29T04:51:51;95034.94;;;18.24;61.45
55289;BME280;41154;45.394;5.734;2024-03-29T04:54:17;95065.28;;;18.42;61.53
55289;BME280;41154;45.394;5.734;2024-03-29T04:56:43;95037.94;;;18.35;61.64
55289;BME280;41154;45.394;5.734;2024-03-29T04:59:08;95045.31;;;18.50;61.35
55289;BME280;41154;45.394;5.734;2024-03-29T05:01:36;95060.53;;;18.39;61.58
55289;BME280;41154;45.394;5.734;2024-03-29T05:04:01;95058.69;;;18.43;61.08
55289;BME280;41154;45.394;5.734;2024-03-29T05:06:29;95049.34;;;18.56;61.07
55289;BME280;41154;45.394;5.734;2024-03-29T05:08:55;95033.66;;;18.49;61.17
55289;BME280;41154;45.394;5.734;2024-03-29T05:11:21;95076.78;;;18.67;60.71
55289;BME280;41154;45.394;5.734;2024-03-29T05:13:47;95064.50;;;18.73;60.66
55289;BME280;41154;45.394;5.734;2024-03-29T05:16:13;95069.97;;;18.45;60.94
55289;BME280;41154;45.394;5.734;2024-03-29T05:18:39;95050.03;;;18.53;60.52
55289;BME280;41154;45.394;5.734;2024-03-29T05:21:04;95065.63;;;18.56;60.71
55289;BME280;41154;45.394;5.734;2024-03-29T05:23:30;95028.25;;;18.65;60.84
55289;BME280;41154;45.394;5.734;2024-03-29T05:25:56;95061.19;;;18.64;60.33
55289;BME280;41154;45.394;5.734;2024-03-29T05:28:22;95038.75;;;18.67;60.08
55289;BME280;41154;45.394;5.734;2024-03-29T05:30:48;95033.91;;;18.60;61.00
55289;BME280;41154;45.394;5.734;2024-03-29T05:33:42;95045.50;;;18.73;59.55
55289;BME280;41154;45.394;5.734;2024-03-29T05:36:08;95051.44;;;18.79;60.05
55289;BME280;41154;45.394;5.734;2024-03-29T05:38:37;95045.88;;;18.88;58.95
55289;BME280;41154;45.394;5.734;2024-03-29T05:41:03;95052.34;;;18.83;59.74
55289;BME280;41154;45.394;5.734;2024-03-29T05:43:59;95070.47;;;18.79;60.04
55289;BME280;41154;45.394;5.734;2024-03-29T05:46:25;95064.41;;;18.69;60.22
55289;BME280;41154;45.394;5.734;2024-03-29T05:49:22;95039.31;;;18.89;59.84
55289;BME280;41154;45.394;5.734;2024-03-29T05:51:48;95057.97;;;18.90;59.07
55289;BME280;41154;45.394;5.734;2024-03-29T05:54:15;95044.88;;;18.80;59.52
55289;BME280;41154;45.394;5.734;2024-03-29T05:56:41;95050.66;;;19.10;58.77
55289;BME280;41154;45.394;5.734;2024-03-29T05:59:07;95051.13;;;19.12;59.15
55289;BME280;41154;45.394;5.734;2024-03-29T06:01:33;95047.94;;;19.26;57.99
55289;BME280;41154;45.394;5.734;2024-03-29T06:04:02;95030.44;;;19.43;58.10
55289;BME280;41154;45.394;5.734;2024-03-29T06:06:30;95063.47;;;19.10;58.66
55289;BME280;41154;45.394;5.734;2024-03-29T06:08:55;95063.41;;;19.06;59.58
55289;BME280;41154;45.394;5.734;2024-03-29T06:11:21;95066.81;;;19.03;59.02
55289;BME280;41154;45.394;5.734;2024-03-29T06:13:47;95055.50;;;19.17;58.27
55289;BME280;41154;45.394;5.734;2024-03-29T06:16:23;95074.06;;;19.15;58.52
55289;BME280;41154;45.394;5.734;2024-03-29T06:19:24;95058.56;;;19.15;58.26
55289;BME280;41154;45.394;5.734;2024-03-29T06:21:50;95040.25;;;19.12;59.51
55289;BME280;41154;45.394;5.734;2024-03-29T06:24:44;95037.97;;;19.50;57.43
55289;BME280;41154;45.394;5.734;2024-03-29T06:27:10;95043.13;;;19.03;59.17
55289;BME280;41154;45.394;5.734;2024-03-29T06:29:36;95058.41;;;19.44;58.61
55289;BME280;41154;45.394;5.734;2024-03-29T06:32:02;95069.19;;;19.04;59.50
55289;BME280;41154;45.394;5.734;2024-03-29T06:34:31;95054.78;;;19.04;59.00
55289;BME280;41154;45.394;5.734;2024-03-29T06:36:57;95019.25;;;19.29;58.28
55289;BME280;41154;45.394;5.734;2024-03-29T06:39:22;95050.53;;;19.38;58.16
55289;BME280;41154;45.394;5.734;2024-03-29T06:41:48;95049.44;;;19.24;59.40
55289;BME280;41154;45.394;5.734;2024-03-29T06:44:14;95066.97;;;19.26;58.60
55289;BME280;41154;45.394;5.734;2024-03-29T12:47:30;95019.41;;;23.07;38.05
55289;BME280;41154;45.394;5.734;2024-03-29T12:50:00;94998.63;;;23.50;37.87
55289;BME280;41154;45.394;5.734;2024-03-29T12:52:26;94959.53;;;23.50;36.81
55289;BME280;41154;45.394;5.734;2024-03-29T12:54:52;94943.22;;;23.05;37.52
55289;BME280;41154;45.394;5.734;2024-03-29T12:57:18;94956.59;;;23.14;38.71
55289;BME280;41154;45.394;5.734;2024-03-29T12:59:46;94946.13;;;23.30;38.96
55289;BME280;41154;45.394;5.734;2024-03-29T13:02:12;94956.75;;;22.84;38.98
55289;BME280;41154;45.394;5.734;2024-03-29T13:04:38;94945.97;;;23.02;39.66
55289;BME280;41154;45.394;5.734;2024-03-29T13:07:09;94950.50;;;22.83;39.12
55289;BME280;41154;45.394;5.734;2024-03-29T13:09:34;94940.44;;;22.94;37.98
55289;BME280;41154;45.394;5.734;2024-03-29T13:12:00;94933.38;;;22.90;38.21
55289;BME280;41154;45.394;5.734;2024-03-29T13:14:26;94942.78;;;22.92;37.54
55289;BME280;41154;45.394;5.734;2024-03-29T13:16:52;94934.81;;;22.73;37.33
55289;BME280;41154;45.394;5.734;2024-03-29T13:19:17;94911.50;;;22.90;37.53
55289;BME280;41154;45.394;5.734;2024-03-29T13:21:43;94914.94;;;22.79;36.07
55289;BME280;41154;45.394;5.734;2024-03-29T13:24:09;94925.91;;;22.83;38.48
55289;BME280;41154;45.394;5.734;2024-03-29T13:26:35;94925.78;;;23.28;38.01
55289;BME280;41154;45.394;5.734;2024-03-29T13:29:01;94911.50;;;23.67;37.83
55289;BME280;41154;45.394;5.734;2024-03-29T13:31:27;94924.84;;;23.02;39.22
55289;BME280;41154;45.394;5.734;2024-03-29T13:33:54;94907.47;;;22.69;38.70
55289;BME280;41154;45.394;5.734;2024-03-29T13:36:30;94922.44;;;22.93;38.38
55289;BME280;41154;45.394;5.734;2024-03-29T13:38:56;94917.78;;;22.97;37.18
55289;BME280;41154;45.394;5.734;2024-03-29T13:41:21;94910.00;;;23.00;37.03
55289;BME280;41154;45.394;5.734;2024-03-29T13:43:47;94931.72;;;22.78;37.77
55289;BME280;41154;45.394;5.734;2024-03-29T13:46:13;94902.84;;;22.84;36.74
55289;BME280;41154;45.394;5.734;2024-03-29T13:48:38;94891.38;;;22.57;36.64
55289;BME280;41154;45.394;5.734;2024-03-29T13:51:06;94900.13;;;22.80;37.38
55289;BME280;41154;45.394;5.734;2024-03-29T13:53:32;94875.44;;;22.70;36.70
55289;BME280;41154;45.394;5.734;2024-03-29T13:56:01;94884.28;;;22.49;37.94
55289;BME280;41154;45.394;5.734;2024-03-29T13:58:29;94913.28;;;22.64;36.49
55289;BME280;41154;45.394;5.734;2024-03-29T14:00:55;94899.34;;;22.84;37.02
55289;BME280;41154;45.394;5.734;2024-03-29T14:03:25;94890.16;;;22.54;37.01
55289;BME280;41154;45.394;5.734;2024-03-29T14:05:51;94905.97;;;22.83;37.27
55289;BME280;41154;45.394;5.734;2024-03-29T14:08:17;94868.50;;;22.83;37.45
55289;BME280;41154;45.394;5.734;2024-03-29T14:10:43;94878.63;;;22.75;38.12
55289;BME280;41154;45.394;5.734;2024-03-29T14:13:09;94884.22;;;23.04;36.43
55289;BME280;41154;45.394;5.734;2024-03-29T14:15:35;94877.75;;;23.27;37.44
55289;BME280;41154;45.394;5.734;2024-03-29T14:18:01;94892.94;;;23.17;36.29
55289;BME280;41154;45.394;5.734;2024-03-29T14:20:26;94871.69;;;22.96;36.60
55289;BME280;41154;45.394;5.734;2024-03-29T14:22:52;94891.31;;;23.09;35.19
55289;BME280;41154;45.394;5.734;2024-03-29T14:25:21;94885.47;;;23.10;35.76
55289;BME280;41154;45.394;5.734;2024-03-29T14:27:47;94877.06;;;23.55;35.76
55289;BME280;41154;45.394;5.734;2024-03-29T14:30:23;94872.66;;;23.29;33.60
55289;BME280;41154;45.394;5.734;2024-03-29T14:32:51;94882.00;;;23.21;36.86
55289;BME280;41154;45.394;5.734;2024-03-29T14:35:18;94862.41;;;23.08;36.17
55289;BME280;41154;45.394;5.734;2024-03-29T14:37:44;94899.88;;;23.04;35.90
55289;BME280;41154;45.394;5.734;2024-03-29T14:40:11;94897.66;;;23.24;36.27
55289;BME280;41154;45.394;5.734;2024-03-29T14:42:44;94886.44;;;22.77;35.30
55289;BME280;41154;45.394;5.734;2024-03-29T14:45:10;94877.59;;;23.02;34.84
55289;BME280;41154;45.394;5.734;2024-03-29T14:47:38;94895.16;;;23.01;35.95
55289;BME280;41154;45.394;5.734;2024-03-29T14:50:05;94886.59;;;23.06;36.38
55289;BME280;41154;45.394;5.734;2024-03-29T14:52:37;94902.22;;;23.02;36.13
55289;BME280;41154;45.394;5.734;2024-03-29T14:55:03;94878.84;;;23.15;35.82
55289;BME280;41154;45.394;5.734;2024-03-29T14:57:29;94882.69;;;23.07;35.94
55289;BME280;41154;45.394;5.734;2024-03-29T14:59:55;94870.25;;;23.13;36.35
55289;BME280;41154;45.394;5.734;2024-03-29T15:02:21;94886.50;;;22.91;35.57
55289;BME280;41154;45.394;5.734;2024-03-29T15:04:47;94843.97;;;22.97;35.63
55289;BME280;41154;45.394;5.734;2024-03-29T15:07:13;94886.53;;;22.95;36.44
55289;BME280;41154;45.394;5.734;2024-03-29T15:09:39;94875.44;;;23.43;35.09
55289;BME280;41154;45.394;5.734;2024-03-29T15:12:04;94877.50;;;22.87;35.60
55289;BME280;41154;45.394;5.734;2024-03-29T15:14:31;94902.91;;;22.88;36.18
55289;BME280;41154;45.394;5.734;2024-03-29T15:16:57;94888.88;;;22.96;34.74
55289;BME280;41154;45.394;5.734;2024-03-29T15:19:22;94857.41;;;23.24;34.46
55289;BME280;41154;45.394;5.734;2024-03-29T15:21:48;94884.63;;;23.03;34.77
55289;BME280;41154;45.394;5.734;2024-03-29T15:24:15;94879.94;;;23.03;34.94
55289;BME280;41154;45.394;5.734;2024-03-29T15:26:41;94876.34;;;22.92;34.14
55289;BME280;41154;45.394;5.734;2024-03-29T15:29:07;94892.75;;;22.92;36.47
55289;BME280;41154;45.394;5.734;2024-03-29T15:31:42;94871.88;;;23.28;34.49
55289;BME280;41154;45.394;5.734;2024-03-29T15:34:10;94876.50;;;23.10;34.57
55289;BME280;41154;45.394;5.734;2024-03-29T15:36:37;94896.38;;;23.07;34.65
55289;BME280;41154;45.394;5.734;2024-03-29T15:39:04;94876.53;;;23.17;34.79
55289;BME280;41154;45.394;5.734;2024-03-29T15:41:40;94907.69;;;23.02;34.93
55289;BME280;41154;45.394;5.734;2024-03-29T15:44:06;94908.38;;;22.88;34.36
55289;BME280;41154;45.394;5.734;2024-03-29T15:46:33;94902.84;;;22.80;34.70
55289;BME280;41154;45.394;5.734;2024-03-29T15:48:59;94930.97;;;22.81;35.39
55289;BME280;41154;45.394;5.734;2024-03-29T15:51:25;94884.69;;;23.10;34.77
55289;BME280;41154;45.394;5.734;2024-03-29T15:53:51;94910.13;;;23.18;34.27
55289;BME280;41154;45.394;5.734;2024-03-29T15:56:18;94898.22;;;22.88;35.85
55289;BME280;41154;45.394;5.734;2024-03-29T15:58:45;94892.13;;;23.09;35.89
55289;BME280;41154;45.394;5.734;2024-03-29T16:01:11;94915.06;;;22.94;34.74
55289;BME280;41154;45.394;5.734;2024-03-29T16:03:39;94898.03;;;23.22;33.84
55289;BME280;41154;45.394;5.734;2024-03-29T16:06:04;94911.72;;;23.22;35.17
55289;BME280;41154;45.394;5.734;2024-03-29T16:08:30;94920.59;;;23.05;34.35
55289;BME280;41154;45.394;5.734;2024-03-29T16:11:00;94925.25;;;23.01;34.14
55289;BME280;41154;45.394;5.734;2024-03-29T16:13:28;94911.66;;;23.15;34.80
55289;BME280;41154;45.394;5.734;2024-03-29T16:15:59;94925.84;;;23.35;34.72
55289;BME280;41154;45.394;5.734;2024-03-29T16:18:27;94916.53;;;23.50;33.29
55289;BME280;41154;45.394;5.734;2024-03-29T16:20:56;94921.41;;;23.09;34.26
55289;BME280;41154;45.394;5.734;2024-03-29T16:23:22;94925.78;;;23.28;33.84
55289;BME280;41154;45.394;5.734;2024-03-29T16:25:48;94939.41;;;23.13;35.81
55289;BME280;41154;45.394;5.734;2024-03-29T16:28:15;94910.13;;;23.18;33.96
55289;BME280;41154;45.394;5.734;2024-03-29T16:30:41;94919.69;;;22.90;34.87
55289;BME280;41154;45.394;5.734;2024-03-29T16:33:07;94936.28;;;23.11;35.58
55289;BME280;41154;45.394;5.734;2024-03-29T16:35:34;94922.88;;;22.95;36.30
55289;BME280;41154;45.394;5.734;2024-03-29T16:38:00;94940.59;;;23.20;36.05
55289;BME280;41154;45.394;5.734;2024-03-29T16:40:27;94913.78;;;22.84;35.36
55289;BME280;41154;45.394;5.734;2024-03-29T16:42:53;94943.16;;;22.91;35.26
55289;BME280;41154;45.394;5.734;2024-03-29T16:45:19;94935.66;;;22.80;34.34
55289;BME280;41154;45.394;5.734;2024-03-29T16:47:44;94947.84;;;22.42;36.57
55289;BME280;41154;45.394;5.734;2024-03-29T16:50:10;94944.03;;;22.50;35.88
55289;BME280;41154;45.394;5.734;2024-03-29T16:52:36;94961.50;;;22.42;35.90
55289;BME280;41154;45.394;5.734;2024-03-29T16:55:03;94960.19;;;22.29;35.77
55289;BME280;41154;45.394;5.734;2024-03-29T16:57:29;94953.78;;;22.14;35.56
55289;BME280;41154;45.394;5.734;2024-03-29T16:59:55;94946.09;;;22.26;35.92
55289;BME280;41154;45.394;5.734;2024-03-29T17:02:20;94961.88;;;22.03;36.68
55289;BME280;41154;45.394;5.734;2024-03-29T17:04:46;94961.25;;;21.83;38.04
55289;BME280;41154;45.394;5.734;2024-03-29T17:07:15;94951.56;;;22.26;36.46
55289;BME280;41154;45.394;5.734;2024-03-29T17:09:43;94965.94;;;21.82;36.12
55289;BME280;41154;45.394;5.734;2024-03-29T17:12:11;94944.41;;;22.11;36.43
55289;BME280;41154;45.394;5.734;2024-03-29T17:14:38;94959.53;;;21.67;36.80
55289;BME280;41154;45.394;5.734;2024-03-29T17:17:04;94951.28;;;21.98;35.38
55289;BME280;41154;45.394;5.734;2024-03-29T17:19:31;94960.47;;;21.82;37.82
55289;BME280;41154;45.394;5.734;2024-03-29T17:21:57;94968.63;;;21.79;37.56
55289;BME280;41154;45.394;5.734;2024-03-29T17:24:23;94969.25;;;21.99;36.30
55289;BME280;41154;45.394;5.734;2024-03-29T17:26:49;94947.97;;;21.78;36.68
55289;BME280;41154;45.394;5.734;2024-03-29T17:29:15;94961.63;;;21.47;37.21
55289;BME280;41154;45.394;5.734;2024-03-29T17:31:42;94960.94;;;21.54;36.39
55289;BME280;41154;45.394;5.734;2024-03-29T17:34:09;94964.50;;;21.58;36.83
55289;BME280;41154;45.394;5.734;2024-03-29T17:36:41;94949.44;;;21.71;36.01
55289;BME280;41154;45.394;5.734;2024-03-29T17:39:08;94971.03;;;21.23;38.21
55289;BME280;41154;45.394;5.734;2024-03-29T17:41:34;94954.44;;;21.05;37.97
55289;BME280;41154;45.394;5.734;2024-03-29T17:44:00;94993.72;;;21.31;36.61
55289;BME280;41154;45.394;5.734;2024-03-29T17:46:26;94968.47;;;21.37;36.47
55289;BME280;41154;45.394;5.734;2024-03-29T17:48:52;94956.41;;;21.69;35.36
55289;BME280;41154;45.394;5.734;2024-03-29T17:51:19;94975.47;;;21.62;35.29
55289;BME280;41154;45.394;5.734;2024-03-29T17:53:45;94965.66;;;21.57;35.96
55289;BME280;41154;45.394;5.734;2024-03-29T17:56:11;94953.16;;;21.26;37.09
55289;BME280;41154;45.394;5.734;2024-03-29T17:58:36;94963.34;;;21.32;36.46
55289;BME280;41154;45.394;5.734;2024-03-29T18:01:02;94987.44;;;21.00;38.52
55289;BME280;41154;45.394;5.734;2024-03-29T18:03:28;94977.47;;;21.11;37.08
55289;BME280;41154;45.394;5.734;2024-03-29T18:05:54;94964.13;;;21.33;35.25
55289;BME280;41154;45.394;5.734;2024-03-29T18:08:21;94965.09;;;21.17;36.51
55289;BME280;41154;45.394;5.734;2024-03-29T18:10:47;94978.44;;;21.23;36.83
55289;BME280;41154;45.394;5.734;2024-03-29T18:13:13;94967.53;;;20.96;36.51
55289;BME280;41154;45.394;5.734;2024-03-29T18:15:42;94983.38;;;21.13;36.50
55289;BME280;41154;45.394;5.734;2024-03-29T18:18:11;94968.81;;;21.32;36.25
55289;BME280;41154;45.394;5.734;2024-03-29T18:20:37;94977.53;;;21.15;36.62
55289;BME280;41154;45.394;5.734;2024-03-29T18:23:04;94993.59;;;20.70;38.13
55289;BME280;41154;45.394;5.734;2024-03-29T18:25:34;94989.19;;;21.12;36.17
55289;BME280;41154;45.394;5.734;2024-03-29T18:28:01;94981.03;;;20.89;37.46
55289;BME280;41154;45.394;5.734;2024-03-29T18:30:30;94984.31;;;20.98;35.44
55289;BME280;41154;45.394;5.734;2024-03-29T18:32:56;94988.56;;;20.72;36.32
55289;BME280;41154;45.394;5.734;2024-03-29T18:35:22;94992.47;;;20.71;36.49
55289;BME280;41154;45.394;5.734;2024-03-29T18:37:48;95008.41;;;20.96;35.99
55289;BME280;41154;45.394;5.734;2024-03-29T18:40:18;95000.50;;;21.14;36.28
55289;BME280;41154;45.394;5.734;2024-03-29T18:42:46;94989.09;;;20.81;36.76
55289;BME280;41154;45.394;5.734;2024-03-29T18:45:13;94987.09;;;20.78;35.60
55289;BME280;41154;45.394;5.734;2024-03-29T18:47:39;94971.81;;;20.97;34.81
55289;BME280;41154;45.394;5.734;2024-03-29T18:50:05;94976.97;;;21.02;35.60
55289;BME280;41154;45.394;5.734;2024-03-29T18:52:31;94982.72;;;20.97;35.13
55289;BME280;41154;45.394;5.734;2024-03-29T18:54:57;94977.22;;;20.93;35.33
55289;BME280;41154;45.394;5.734;2024-03-29T18:57:22;94991.72;;;20.74;34.60
55289;BME280;41154;45.394;5.734;2024-03-29T18:59:51;95002.00;;;21.11;34.52
55289;BME280;41154;45.394;5.734;2024-03-29T19:02:17;94976.53;;;21.00;33.64
55289;BME280;41154;45.394;5.734;2024-03-29T19:04:43;94969.53;;;20.99;34.54
55289;BME280;41154;45.394;5.734;2024-03-29T19:07:09;95016.97;;;20.71;33.98
55289;BME280;41154;45.394;5.734;2024-03-29T19:09:34;94994.09;;;21.29;32.82
55289;BME280;41154;45.394;5.734;2024-03-29T19:12:01;95002.91;;;21.19;33.51
55289;BME280;41154;45.394;5.734;2024-03-29T19:14:28;94978.22;;;21.08;32.49
55289;BME280;41154;45.394;5.734;2024-03-29T19:16:54;95004.00;;;21.14;32.65
55289;BME280;41154;45.394;5.734;2024-03-29T19:19:23;95000.97;;;20.93;34.39
55289;BME280;41154;45.394;5.734;2024-03-29T19:21:51;94995.56;;;20.96;34.36
55289;BME280;41154;45.394;5.734;2024-03-29T19:24:20;95014.31;;;21.01;33.59
55289;BME280;41154;45.394;5.734;2024-03-29T19:26:47;95030.66;;;20.75;33.46
55289;BME280;41154;45.394;5.734;2024-03-29T19:29:13;94992.91;;;20.77;34.05
55289;BME280;41154;45.394;5.734;2024-03-29T19:31:39;95050.72;;;20.24;35.27
55289;BME280;41154;45.394;5.734;2024-03-29T19:34:06;95000.13;;;21.15;30.32
55289;BME280;41154;45.394;5.734;2024-03-29T19:36:32;95029.91;;;21.01;31.35
55289;BME280;41154;45.394;5.734;2024-03-29T19:38:58;95014.88;;;20.88;32.44
55289;BME280;41154;45.394;5.734;2024-03-29T19:41:24;95012.13;;;20.84;31.95
55289;BME280;41154;45.394;5.734;2024-03-29T19:43:50;94990.16;;;20.73;32.30
55289;BME280;41154;45.394;5.734;2024-03-29T19:46:16;95027.44;;;21.19;30.96
55289;BME280;41154;45.394;5.734;2024-03-29T19:48:41;95005.69;;;20.96;30.81
55289;BME280;41154;45.394;5.734;2024-03-29T19:51:07;95069.47;;;20.68;31.91
55289;BME280;41154;45.394;5.734;2024-03-29T19:53:33;95008.50;;;21.03;29.51
55289;BME280;41154;45.394;5.734;2024-03-29T19:56:00;95007.34;;;21.31;30.26
55289;BME280;41154;45.394;5.734;2024-03-29T19:58:26;95036.09;;;21.25;30.57
55289;BME280;41154;45.394;5.734;2024-03-29T20:00:53;95013.28;;;21.36;29.17
55289;BME280;41154;45.394;5.734;2024-03-29T20:03:19;95004.22;;;21.29;30.29
55289;BME280;41154;45.394;5.734;2024-03-29T20:05:45;95000.28;;;21.26;29.73
55289;BME280;41154;45.394;5.734;2024-03-29T20:08:11;95004.09;;;21.22;30.20
55289;BME280;41154;45.394;5.734;2024-03-29T20:10:40;95010.88;;;21.05;29.91
55289;BME280;41154;45.394;5.734;2024-03-29T20:13:07;94990.13;;;20.96;28.78
55289;BME280;41154;45.394;5.734;2024-03-29T20:15:36;95001.78;;;21.24;28.83
55289;BME280;41154;45.394;5.734;2024-03-29T20:18:04;95003.94;;;20.84;29.82
55289;BME280;41154;45.394;5.734;2024-03-29T20:20:33;95022.63;;;20.62;30.01
55289;BME280;41154;45.394;5.734;2024-03-29T20:22:59;94992.94;;;20.54;29.83
55289;BME280;41154;45.394;5.734;2024-03-29T20:25:25;95013.56;;;20.55;30.08
55289;BME280;41154;45.394;5.734;2024-03-29T20:27:51;94998.78;;;21.02;28.56
55289;BME280;41154;45.394;5.734;2024-03-29T20:30:17;95000.84;;;20.86;29.67
55289;BME280;41154;45.394;5.734;2024-03-29T20:32:46;95006.84;;;20.95;28.73
55289;BME280;41154;45.394;5.734;2024-03-29T20:35:13;94986.00;;;20.83;28.30
55289;BME280;41154;45.394;5.734;2024-03-29T20:37:40;94990.53;;;20.98;28.56
55289;BME280;41154;45.394;5.734;2024-03-29T20:40:11;95006.19;;;20.78;28.15
55289;BME280;41154;45.394;5.734;2024-03-29T20:42:38;94967.75;;;20.83;27.84
55289;BME280;41154;45.394;5.734;2024-03-29T20:45:04;95038.06;;;20.55;30.41
55289;BME280;41154;45.394;5.734;2024-03-29T20:47:34;94994.81;;;20.73;27.37
55289;BME280;41154;45.394;5.734;2024-03-29T20:50:02;94999.97;;;20.58;29.78
55289;BME280;41154;45.394;5.734;2024-03-29T20:52:29;94985.28;;;21.13;28.03
55289;BME280;41154;45.394;5.734;2024-03-29T20:54:55;94992.13;;;20.99;27.60
55289;BME280;41154;45.394;5.734;2024-03-29T20:57:24;95019.25;;;20.92;28.83
55289;BME280;41154;45.394;5.734;2024-03-29T20:59:50;94983.38;;;20.87;27.35
55289;BME280;41154;45.394;5.734;2024-03-29T21:02:16;95011.75;;;21.12;27.07
55289;BME280;41154;45.394;5.734;2024-03-29T21:05:00;95008.06;;;20.97;29.24
55289;BME280;41154;45.394;5.734;2024-03-29T21:07:45;94973.38;;;20.48;28.06
55289;BME280;41154;45.394;5.734;2024-03-29T21:10:12;95002.00;;;20.85;27.95
55289;BME280;41154;45.394;5.734;2024-03-29T21:12:39;95021.25;;;20.72;27.78
55289;BME280;41154;45.394;5.734;2024-03-29T21:15:05;94994.81;;;20.73;27.06
55289;BME280;41154;45.394;5.734;2024-03-29T21:17:31;94984.25;;;20.94;27.05
55289;BME280;41154;45.394;5.734;2024-03-29T21:19:56;95017.75;;;20.95;27.35
55289;BME280;41154;45.394;5.734;2024-03-29T21:22:23;94990.66;;;21.06;26.88
55289;BME280;41154;45.394;5.734;2024-03-29T21:24:48;94991.53;;;20.63;27.48
55289;BME280;41154;45.394;5.734;2024-03-29T21:27:14;94969.63;;;20.79;28.42
55289;BME280;41154;45.394;5.734;2024-03-29T21:29:40;95003.34;;;20.71;27.51
55289;BME280;41154;45.394;5.734;2024-03-29T21:32:06;94994.44;;;20.97;26.07
55289;BME280;41154;45.394;5.734;2024-03-29T21:34:32;95001.44;;;20.98;26.10
55289;BME280;41154;45.394;5.734;2024-03-29T21:36:57;95003.38;;;20.98;26.18
55289;BME280;41154;45.394;5.734;2024-03-29T21:39:24;94996.31;;;20.93;26.67
55289;BME280;41154;45.394;5.734;2024-03-29T21:41:50;94975.34;;;20.97;25.93